Time;durP1;ratioP1;P1;durP2;ratioP2;P2;SDS_P1;SDS_P2;PMS_P1;PMS_P2;Temp;Humidity;BMP_temperature;BMP_pressure;BME280_temperature;BME280_humidity;BME280_pressure;Samples;Min_cycle;Max_cycle;Signal;HPM_P1;HPM_P2
2022/07/20 00:00:06;;;;;;;3.00;1.42;;;24.00;61.80;;;;;;5076338;28;20703;-86
2022/07/20 00:02:32;;;;;;;1.60;1.33;;;24.00;62.10;;;;;;5076167;28;20697;-86
2022/07/20 00:04:59;;;;;;;1.25;1.00;;;23.90;62.20;;;;;;5076503;28;20198;-86
2022/07/20 00:07:27;;;;;;;1.40;1.30;;;23.90;62.70;;;;;;5076385;28;20202;-86
2022/07/20 00:12:38;;;;;;;1.50;0.85;;;23.80;63.20;;;;;;5076325;28;20256;-86
2022/07/20 00:15:06;;;;;;;3.27;1.23;;;23.70;63.80;;;;;;5076190;28;20217;-86
2022/07/20 00:17:32;;;;;;;1.83;1.73;;;23.70;64.10;;;;;;5076217;28;20210;-86
2022/07/20 00:19:59;;;;;;;3.67;1.10;;;23.60;64.40;;;;;;5076204;28;20230;-86
2022/07/20 00:22:27;;;;;;;2.50;1.67;;;23.50;64.00;;;;;;5076177;28;20483;-86
2022/07/20 00:24:55;;;;;;;1.23;1.13;;;23.40;64.30;;;;;;5076220;28;20208;-86
2022/07/20 00:27:21;;;;;;;2.20;1.20;;;23.40;65.20;;;;;;5076076;28;20202;-86
2022/07/20 00:29:48;;;;;;;2.43;1.73;;;23.30;65.00;;;;;;5076199;28;20229;-86
2022/07/20 00:32:15;;;;;;;3.53;0.87;;;23.30;64.90;;;;;;5075806;28;20213;-87
2022/07/20 00:34:41;;;;;;;1.60;1.17;;;23.20;64.90;;;;;;5076032;28;20206;-86
2022/07/20 00:37:08;;;;;;;2.03;1.37;;;23.20;64.00;;;;;;5075945;28;20444;-86
2022/07/20 00:39:36;;;;;;;2.00;1.10;;;23.20;64.50;;;;;;5075691;28;20468;-86
2022/07/20 00:42:03;;;;;;;1.33;0.87;;;23.10;64.60;;;;;;5075941;28;20218;-86
2022/07/20 00:44:30;;;;;;;1.47;1.30;;;23.10;65.10;;;;;;5076056;28;20432;-86
2022/07/20 00:46:57;;;;;;;1.87;0.90;;;23.00;63.90;;;;;;5075642;28;20452;-87
2022/07/20 00:49:24;;;;;;;2.30;1.40;;;23.00;64.70;;;;;;5075609;28;20463;-86
2022/07/20 00:51:50;;;;;;;1.73;1.40;;;23.00;64.50;;;;;;5075508;28;20455;-86
2022/07/20 00:54:20;;;;;;;0.93;0.80;;;23.00;64.30;;;;;;5075243;28;20805;-86
2022/07/20 00:56:48;;;;;;;2.67;1.53;;;22.90;65.30;;;;;;5075380;28;20459;-82
2022/07/20 00:59:15;;;;;;;1.90;1.00;;;22.90;65.70;;;;;;5075191;28;20471;-83
2022/07/20 01:01:41;;;;;;;2.10;1.20;;;22.90;64.70;;;;;;5075353;28;20447;-83
2022/07/20 01:04:08;;;;;;;1.43;0.90;;;22.90;65.70;;;;;;5075092;28;20484;-82
2022/07/20 01:06:35;;;;;;;2.87;1.63;;;22.80;66.00;;;;;;5075110;28;20451;-82
2022/07/20 01:09:02;;;;;;;2.40;0.93;;;22.80;66.40;;;;;;5075009;28;20472;-83
2022/07/20 01:11:29;;;;;;;1.23;1.10;;;22.80;66.80;;;;;;5074973;28;20457;-82
2022/07/20 01:14:02;;;;;;;4.63;1.27;;;22.70;67.30;;;;;;5074687;28;20441;-82
2022/07/20 01:16:30;;;;;;;1.33;1.23;;;22.60;67.70;;;;;;5074960;28;20421;-83
2022/07/20 01:18:56;;;;;;;1.93;1.30;;;22.60;67.80;;;;;;5074471;28;20464;-83
2022/07/20 01:21:24;;;;;;;2.23;1.13;;;22.50;68.30;;;;;;5074763;28;20455;-82
2022/07/20 01:23:52;;;;;;;2.60;1.40;;;22.50;68.50;;;;;;5074374;28;20995;-82
2022/07/20 01:26:20;;;;;;;2.53;0.70;;;22.50;68.40;;;;;;5074679;28;20447;-82
2022/07/20 01:28:47;;;;;;;0.90;0.90;;;22.50;69.10;;;;;;5074535;28;20460;-82
2022/07/20 01:31:14;;;;;;;2.00;1.40;;;22.50;69.30;;;;;;5074265;28;20939;-82
2022/07/20 01:33:41;;;;;;;1.90;1.20;;;22.50;69.50;;;;;;5074221;28;20811;-82
2022/07/20 01:36:08;;;;;;;1.93;1.20;;;22.50;69.10;;;;;;5074188;28;20963;-82
2022/07/20 01:38:37;;;;;;;2.20;1.10;;;22.60;69.30;;;;;;5074029;28;20570;-82
2022/07/20 01:41:03;;;;;;;2.47;1.30;;;22.60;69.50;;;;;;5074406;28;20518;-82
2022/07/20 01:43:30;;;;;;;1.40;0.87;;;22.60;69.90;;;;;;5074276;28;20476;-82
2022/07/20 01:45:57;;;;;;;1.67;0.87;;;22.60;70.10;;;;;;5073983;28;21005;-82
2022/07/20 01:48:24;;;;;;;1.10;0.80;;;22.60;70.20;;;;;;5074175;28;20460;-82
2022/07/20 01:50:50;;;;;;;2.83;1.23;;;22.50;70.30;;;;;;5073946;28;20507;-82
2022/07/20 01:53:17;;;;;;;2.40;1.00;;;22.40;70.60;;;;;;5074130;28;20444;-82
2022/07/20 01:55:45;;;;;;;2.67;1.20;;;22.40;70.80;;;;;;5074130;28;20451;-82
2022/07/20 01:58:12;;;;;;;1.90;0.97;;;22.30;71.30;;;;;;5074015;28;20479;-82
2022/07/20 02:00:38;;;;;;;1.10;1.00;;;22.30;70.90;;;;;;5073681;28;20455;-82
2022/07/20 02:03:05;;;;;;;3.63;1.50;;;22.30;71.50;;;;;;5073585;28;21027;-82
2022/07/20 02:05:32;;;;;;;1.27;1.17;;;22.30;71.20;;;;;;5073983;28;20448;-82
2022/07/20 02:07:59;;;;;;;2.23;0.70;;;22.30;71.80;;;;;;5073853;28;20468;-82
2022/07/20 02:10:25;;;;;;;1.90;1.00;;;22.30;72.10;;;;;;5073536;28;20960;-82
2022/07/20 02:12:53;;;;;;;2.07;1.20;;;22.30;72.50;;;;;;5073092;28;20452;-82
2022/07/20 02:18:06;;;;;;;1.80;1.50;;;22.20;71.70;;;;;;5073101;28;20444;-82
2022/07/20 02:20:32;;;;;;;4.80;1.23;;;22.20;72.00;;;;;;5073656;28;20427;-82
2022/07/20 02:22:59;;;;;;;1.77;1.00;;;22.10;72.10;;;;;;5073601;28;20506;-82
2022/07/20 02:25:26;;;;;;;1.00;0.90;;;22.10;72.40;;;;;;5073304;28;20452;-82
2022/07/20 02:27:54;;;;;;;2.13;1.27;;;22.10;72.70;;;;;;5073828;28;20455;-82
2022/07/20 02:30:21;;;;;;;1.90;1.27;;;22.10;73.10;;;;;;5073586;28;20452;-82
2022/07/20 02:32:48;;;;;;;2.50;1.20;;;22.00;73.20;;;;;;5073527;28;20448;-82
2022/07/20 02:35:15;;;;;;;1.07;0.90;;;22.00;73.50;;;;;;5073527;28;20440;-82
2022/07/20 02:37:42;;;;;;;2.53;0.93;;;22.00;73.10;;;;;;5073001;28;20483;-82
2022/07/20 02:40:10;;;;;;;2.37;1.40;;;21.90;73.00;;;;;;5073492;28;20438;-82
2022/07/20 02:42:36;;;;;;;1.73;0.90;;;21.90;73.30;;;;;;5073371;28;20494;-82
2022/07/20 02:45:06;;;;;;;1.37;0.87;;;21.80;74.20;;;;;;5073419;28;20452;-82
2022/07/20 02:47:41;;;;;;;1.27;1.03;;;21.70;73.60;;;;;;5073083;28;20831;-82
2022/07/20 02:50:09;;;;;;;2.10;1.93;;;21.70;74.00;;;;;;5073148;28;20440;-82
2022/07/20 02:52:36;;;;;;;1.17;0.90;;;21.70;73.80;;;;;;5073082;28;20458;-82
2022/07/20 02:55:02;;;;;;;2.13;1.43;;;21.70;73.40;;;;;;5073328;28;20444;-82
2022/07/20 02:57:29;;;;;;;1.10;0.93;;;21.70;73.70;;;;;;5073320;28;20444;-82
2022/07/20 02:59:56;;;;;;;8.67;1.77;;;21.70;73.70;;;;;;5073228;28;20464;-82
2022/07/20 03:02:24;;;;;;;1.37;1.33;;;21.70;74.50;;;;;;5073216;28;20452;-82
2022/07/20 03:04:51;;;;;;;2.37;1.70;;;21.70;73.50;;;;;;5073225;28;20444;-82
2022/07/20 03:07:19;;;;;;;0.80;0.80;;;21.70;73.80;;;;;;5073187;28;20456;-82
2022/07/20 03:09:45;;;;;;;2.20;1.43;;;21.70;73.90;;;;;;5072857;28;20471;-82
2022/07/20 03:12:12;;;;;;;0.80;0.80;;;21.70;74.40;;;;;;5073160;28;20448;-82
2022/07/20 03:14:39;;;;;;;1.93;1.10;;;21.70;74.40;;;;;;5073132;28;20448;-82
2022/07/20 03:17:06;;;;;;;3.80;0.93;;;21.60;74.60;;;;;;5073249;28;20445;-82
2022/07/20 03:19:34;;;;;;;4.10;1.07;;;21.60;75.00;;;;;;5073020;28;20491;-82
2022/07/20 03:22:00;;;;;;;1.43;0.83;;;21.50;75.30;;;;;;5073074;28;20444;-82
2022/07/20 03:24:27;;;;;;;1.13;1.00;;;21.50;75.20;;;;;;5075710;28;20483;-82
2022/07/20 03:26:54;;;;;;;1.67;1.57;;;21.50;75.10;;;;;;5076979;28;20447;-82
2022/07/20 03:29:20;;;;;;;1.10;1.00;;;21.50;74.90;;;;;;5076921;28;20495;-82
2022/07/20 03:31:47;;;;;;;2.40;1.50;;;21.50;75.20;;;;;;5076841;28;20448;-82
2022/07/20 03:34:14;;;;;;;6.23;1.50;;;21.40;75.60;;;;;;5076862;28;20448;-82
2022/07/20 03:36:42;;;;;;;3.00;1.23;;;21.40;76.00;;;;;;5076447;28;20966;-82
2022/07/20 03:39:09;;;;;;;1.33;1.23;;;21.40;76.00;;;;;;5076254;28;20897;-82
2022/07/20 03:41:35;;;;;;;1.80;0.90;;;21.40;76.00;;;;;;5076618;28;20457;-82
2022/07/20 03:44:02;;;;;;;3.73;1.57;;;21.40;76.10;;;;;;5076261;28;20841;-82
2022/07/20 03:46:29;;;;;;;1.00;0.87;;;21.30;76.00;;;;;;5076606;28;20825;-82
2022/07/20 03:48:56;;;;;;;1.20;1.10;;;21.30;76.60;;;;;;5076511;28;20469;-82
2022/07/20 03:51:22;;;;;;;1.47;0.80;;;21.30;76.50;;;;;;5076513;28;20802;-82
2022/07/20 03:53:50;;;;;;;2.70;0.90;;;21.30;76.60;;;;;;5076120;28;20956;-82
2022/07/20 03:56:17;;;;;;;1.63;0.97;;;21.30;76.80;;;;;;5076128;28;20459;-82
2022/07/20 03:58:44;;;;;;;1.33;1.13;;;21.30;76.90;;;;;;5076298;28;20471;-82
2022/07/20 04:01:11;;;;;;;1.00;0.90;;;21.30;77.80;;;;;;5076346;28;20468;-85
2022/07/20 04:03:37;;;;;;;1.00;0.90;;;21.20;77.40;;;;;;5075941;28;21021;-85
2022/07/20 04:06:05;;;;;;;1.93;1.00;;;21.20;77.30;;;;;;5076230;28;20946;-85
2022/07/20 04:08:32;;;;;;;2.40;1.03;;;21.20;77.90;;;;;;5076158;28;20464;-82
2022/07/20 04:11:00;;;;;;;1.97;1.13;;;21.20;78.20;;;;;;5076158;28;20451;-81
2022/07/20 04:13:27;;;;;;;2.37;1.10;;;21.20;78.20;;;;;;5075801;28;20448;-82
2022/07/20 04:15:54;;;;;;;7.20;1.47;;;21.20;78.10;;;;;;5076053;28;20797;-82
2022/07/20 04:18:20;;;;;;;2.03;1.20;;;21.20;78.90;;;;;;5076052;28;20464;-87
2022/07/20 04:20:47;;;;;;;1.10;1.00;;;21.20;77.50;;;;;;5076422;28;20448;-88
2022/07/20 04:23:14;;;;;;;1.63;1.50;;;21.30;77.50;;;;;;5076276;28;20480;-87
2022/07/20 04:25:41;;;;;;;3.87;1.60;;;21.30;77.90;;;;;;5076228;28;20452;-88
2022/07/20 04:28:09;;;;;;;4.47;1.17;;;21.40;77.60;;;;;;5076239;28;20476;-88
2022/07/20 04:30:36;;;;;;;1.80;1.30;;;21.40;77.90;;;;;;5076130;28;20456;-88
2022/07/20 04:33:03;;;;;;;1.47;1.10;;;21.50;78.00;;;;;;5076095;28;20452;-88
2022/07/20 04:35:30;;;;;;;1.17;1.07;;;21.50;78.40;;;;;;5075289;28;20456;-87
2022/07/20 04:37:57;;;;;;;1.67;1.10;;;21.60;78.30;;;;;;5075665;28;20488;-88
2022/07/20 04:40:23;;;;;;;2.60;1.07;;;21.60;79.10;;;;;;5075680;28;20970;-88
2022/07/20 04:42:50;;;;;;;4.30;1.47;;;21.60;79.20;;;;;;5075968;28;20444;-88
2022/07/20 04:45:18;;;;;;;4.20;2.37;;;21.70;79.50;;;;;;5075783;28;20487;-88
2022/07/20 04:47:45;;;;;;;4.40;1.40;;;21.70;79.70;;;;;;5075775;28;20444;-87
2022/07/20 04:50:12;;;;;;;3.27;1.20;;;21.70;79.90;;;;;;5075781;28;20449;-87
2022/07/20 04:52:39;;;;;;;1.63;1.07;;;21.70;79.70;;;;;;5075659;28;20448;-88
2022/07/20 04:55:08;;;;;;;3.80;1.10;;;21.70;78.50;;;;;;5075509;28;20958;-87
2022/07/20 04:57:35;;;;;;;0.87;0.87;;;21.80;78.50;;;;;;5075614;28;20451;-87
2022/07/20 05:00:02;;;;;;;2.47;1.43;;;21.80;78.30;;;;;;5075497;28;20452;-87
2022/07/20 05:02:30;;;;;;;1.77;1.50;;;21.90;78.90;;;;;;5075294;28;20440;-87
2022/07/20 05:04:57;;;;;;;1.37;1.10;;;22.00;79.50;;;;;;5075237;28;20476;-87
2022/07/20 05:07:24;;;;;;;1.87;1.00;;;22.00;79.90;;;;;;5075295;28;20448;-87
2022/07/20 05:09:51;;;;;;;2.47;1.43;;;22.00;79.10;;;;;;5075154;28;20472;-87
2022/07/20 05:12:17;;;;;;;1.50;0.90;;;22.10;79.80;;;;;;5075142;28;20448;-87
2022/07/20 05:14:44;;;;;;;2.43;1.47;;;22.10;79.70;;;;;;5074841;28;20944;-87
2022/07/20 05:17:11;;;;;;;5.07;1.10;;;22.20;79.00;;;;;;5075166;28;20441;-87
2022/07/20 05:19:39;;;;;;;1.57;1.03;;;22.20;75.90;;;;;;5075016;28;20813;-87
2022/07/20 05:22:05;;;;;;;2.00;1.17;;;22.30;75.40;;;;;;5075303;28;20444;-87
2022/07/20 05:24:32;;;;;;;2.70;1.33;;;22.30;74.40;;;;;;5074995;28;20484;-88
2022/07/20 05:26:59;;;;;;;3.03;1.43;;;22.40;74.60;;;;;;5075051;28;20448;-87
2022/07/20 05:29:26;;;;;;;1.63;1.30;;;22.50;73.10;;;;;;5074748;28;20463;-87
2022/07/20 05:31:52;;;;;;;2.00;1.47;;;22.60;72.70;;;;;;5074691;28;20456;-86
2022/07/20 05:34:19;;;;;;;1.10;1.00;;;22.70;71.90;;;;;;5074822;28;20919;-86
2022/07/20 05:36:47;;;;;;;2.07;1.40;;;22.80;71.90;;;;;;5074558;28;20456;-87
2022/07/20 05:39:14;;;;;;;4.50;1.73;;;22.80;71.90;;;;;;5074129;28;20503;-87
2022/07/20 05:41:40;;;;;;;3.23;1.20;;;22.90;72.60;;;;;;5074576;28;20444;-86
2022/07/20 05:44:07;;;;;;;1.43;1.27;;;22.90;72.20;;;;;;5074016;28;20849;-86
2022/07/20 05:46:34;;;;;;;1.60;1.50;;;22.90;72.30;;;;;;5073427;28;20447;-87
2022/07/20 05:49:01;;;;;;;3.90;1.90;;;22.90;72.10;;;;;;5074077;28;20468;-87
2022/07/20 05:51:27;;;;;;;1.30;1.20;;;22.90;72.20;;;;;;5074420;28;20455;-87
2022/07/20 05:53:55;;;;;;;1.30;1.20;;;23.00;72.80;;;;;;5073981;28;20451;-87
2022/07/20 05:56:22;;;;;;;1.60;1.43;;;23.10;73.00;;;;;;5074349;28;20210;-86
2022/07/20 05:58:49;;;;;;;2.97;1.70;;;23.20;73.10;;;;;;5074260;28;20467;-87
2022/07/20 06:01:15;;;;;;;2.10;1.37;;;23.20;72.30;;;;;;5073876;28;20444;-86
2022/07/20 06:03:42;;;;;;;1.87;1.50;;;23.30;72.10;;;;;;5074095;28;20218;-87
2022/07/20 06:06:09;;;;;;;2.50;1.27;;;23.40;72.50;;;;;;5074105;28;20540;-87
2022/07/20 06:08:37;;;;;;;1.47;1.23;;;23.50;72.00;;;;;;5073640;28;20229;-87
2022/07/20 06:11:05;;;;;;;2.60;1.47;;;23.60;72.50;;;;;;5074050;28;20209;-87
2022/07/20 06:13:32;;;;;;;4.47;1.63;;;23.80;73.10;;;;;;5074203;28;20207;-87
2022/07/20 06:15:59;;;;;;;2.15;1.30;;;23.90;73.30;;;;;;5075188;28;20201;-87
2022/07/20 06:18:25;;;;;;;4.50;1.93;;;24.00;73.10;;;;;;5073996;28;20229;-87
2022/07/20 06:20:52;;;;;;;1.57;1.23;;;24.20;72.00;;;;;;5073497;28;20197;-87
2022/07/20 06:23:19;;;;;;;2.97;2.65;;;24.30;72.50;;;;;;5073605;28;20678;-87
2022/07/20 06:25:46;;;;;;;6.45;1.90;;;24.50;72.60;;;;;;5073744;28;20229;-87
2022/07/20 06:28:14;;;;;;;1.73;1.63;;;24.70;72.60;;;;;;5073492;28;20218;-87
2022/07/20 06:30:40;;;;;;;2.05;1.55;;;24.90;72.60;;;;;;5073523;28;20198;-87
2022/07/20 06:33:07;;;;;;;2.45;1.40;;;25.10;72.70;;;;;;5073763;28;20206;-87
2022/07/20 06:35:36;;;;;;;1.67;1.10;;;25.20;71.70;;;;;;5073681;28;20198;-87
2022/07/20 06:38:03;;;;;;;3.72;1.88;;;25.40;71.30;;;;;;5073213;28;20300;-87
2022/07/20 06:40:30;;;;;;;3.95;2.30;;;25.60;70.80;;;;;;5073606;28;20209;-87
2022/07/20 06:42:56;;;;;;;4.13;1.27;;;25.70;71.00;;;;;;5074040;28;20554;-88
2022/07/20 06:45:24;;;;;;;1.45;1.20;;;25.80;70.30;;;;;;5073569;28;20229;-86
2022/07/20 06:47:51;;;;;;;1.50;1.27;;;26.10;69.70;;;;;;5073410;28;20206;-86
2022/07/20 06:50:18;;;;;;;1.70;1.50;;;26.20;68.10;;;;;;5073206;28;20186;-86
2022/07/20 06:52:45;;;;;;;4.35;1.90;;;26.30;68.50;;;;;;5073183;28;20202;-84
2022/07/20 06:55:12;;;;;;;1.25;1.15;;;26.50;68.90;;;;;;5073331;28;20205;-84
2022/07/20 06:57:38;;;;;;;1.90;1.48;;;26.70;67.40;;;;;;5072497;28;20198;-84
2022/07/20 07:00:07;;;;;;;3.55;2.45;;;26.90;66.90;;;;;;5073416;28;20202;-84
2022/07/20 07:02:35;;;;;;;3.05;1.67;;;27.00;66.10;;;;;;5073035;28;20665;-84
2022/07/20 07:05:02;;;;;;;3.25;1.90;;;27.10;66.10;;;;;;5073254;28;20342;-85
2022/07/20 07:07:29;;;;;;;2.95;2.22;;;27.20;66.00;;;;;;5073102;28;20704;-84
2022/07/20 07:09:55;;;;;;;1.50;1.40;;;27.40;64.90;;;;;;5073275;28;20283;-87
2022/07/20 07:12:22;;;;;;;2.60;1.63;;;27.50;65.90;;;;;;5072951;28;20692;-87
2022/07/20 07:14:49;;;;;;;3.83;2.08;;;27.60;64.90;;;;;;5073856;28;20202;-87
2022/07/20 07:17:16;;;;;;;3.38;2.50;;;27.70;65.40;;;;;;5073301;28;20222;-87
2022/07/20 07:19:44;;;;;;;1.80;1.70;;;27.90;64.20;;;;;;5073161;28;20222;-87
2022/07/20 07:22:11;;;;;;;2.30;1.98;;;27.90;64.30;;;;;;5073150;28;20213;-88
2022/07/20 07:24:38;;;;;;;4.65;2.20;;;28.10;64.20;;;;;;5073255;28;20229;-87
2022/07/20 07:27:05;;;;;;;2.03;1.60;;;28.30;63.80;;;;;;5073026;28;20665;-87
2022/07/20 07:29:32;;;;;;;1.95;1.80;;;28.50;63.00;;;;;;5072805;28;20744;-87
2022/07/20 07:31:59;;;;;;;1.60;1.40;;;28.60;63.70;;;;;;5072990;28;20202;-87
2022/07/20 07:34:26;;;;;;;2.97;2.13;;;28.80;63.60;;;;;;5072842;28;20228;-87
2022/07/20 07:36:54;;;;;;;1.73;1.55;;;28.90;63.10;;;;;;5072979;28;20202;-88
2022/07/20 07:39:21;;;;;;;5.68;1.63;;;29.00;62.30;;;;;;5072606;28;20243;-87
2022/07/20 07:41:48;;;;;;;1.88;1.70;;;29.20;60.80;;;;;;5073142;28;20204;-88
2022/07/20 07:44:15;;;;;;;3.20;1.73;;;29.40;60.60;;;;;;5073008;28;20232;-88
2022/07/20 07:46:42;;;;;;;1.85;1.75;;;29.70;60.00;;;;;;5072891;28;20226;-87
2022/07/20 07:49:08;;;;;;;1.55;1.45;;;29.90;61.10;;;;;;5072876;28;20225;-87
2022/07/20 07:51:36;;;;;;;2.00;1.80;;;30.20;57.70;;;;;;5072627;28;20190;-87
2022/07/20 07:54:05;;;;;;;1.63;1.50;;;30.50;58.20;;;;;;5072925;28;20252;-87
2022/07/20 07:56:32;;;;;;;1.60;1.50;;;30.70;58.50;;;;;;5072929;28;20218;-87
2022/07/20 07:58:59;;;;;;;1.70;1.60;;;31.10;58.30;;;;;;5072751;28;20220;-87
2022/07/20 08:01:26;;;;;;;1.67;1.58;;;31.40;56.80;;;;;;5072827;28;20381;-87
2022/07/20 08:03:52;;;;;;;2.88;1.27;;;31.80;56.20;;;;;;5072734;28;20197;-87
2022/07/20 08:06:19;;;;;;;1.77;1.40;;;32.10;54.70;;;;;;5072377;28;20221;-87
2022/07/20 08:08:46;;;;;;;2.65;1.65;;;32.50;54.10;;;;;;5072749;28;20229;-87
2022/07/20 08:11:15;;;;;;;1.67;1.30;;;33.00;54.20;;;;;;5075084;28;20207;-88
2022/07/20 08:13:42;;;;;;;2.13;1.80;;;33.30;54.30;;;;;;5076132;28;20240;-88
2022/07/20 08:16:09;;;;;;;1.60;1.48;;;33.50;52.40;;;;;;5076210;28;20323;-88
2022/07/20 08:18:36;;;;;;;2.08;1.98;;;33.40;51.60;;;;;;5076106;28;20225;-88
2022/07/20 08:21:03;;;;;;;1.55;1.45;;;33.30;51.70;;;;;;5076063;28;20227;-88
2022/07/20 08:23:29;;;;;;;1.42;1.33;;;33.10;51.90;;;;;;5075798;28;20201;-88
2022/07/20 08:25:56;;;;;;;1.70;1.60;;;32.90;52.30;;;;;;5075954;28;20220;-88
2022/07/20 08:28:24;;;;;;;2.50;1.98;;;32.80;52.90;;;;;;5076235;28;20224;-88
2022/07/20 08:30:52;;;;;;;3.20;2.17;;;32.70;52.40;;;;;;5075811;28;20696;-87
2022/07/20 08:33:20;;;;;;;1.70;1.60;;;32.60;53.00;;;;;;5075899;28;20201;-88
2022/07/20 08:35:47;;;;;;;3.72;2.30;;;32.60;53.60;;;;;;5075835;28;20204;-87
2022/07/20 08:38:14;;;;;;;2.63;1.55;;;32.60;53.60;;;;;;5075279;28;20240;-87
2022/07/20 08:40:40;;;;;;;2.42;1.80;;;32.70;53.50;;;;;;5075728;28;20205;-87
2022/07/20 08:43:07;;;;;;;2.42;1.65;;;32.70;53.70;;;;;;5075462;28;20676;-89
2022/07/20 08:45:36;;;;;;;1.67;1.58;;;32.80;52.90;;;;;;5076244;28;20229;-89
2022/07/20 08:48:07;;;;;;;1.70;1.58;;;32.90;51.40;;;;;;5075734;28;20257;-89
2022/07/20 08:50:33;;;;;;;3.67;1.67;;;33.00;51.30;;;;;;5075712;28;20186;-89
2022/07/20 08:53:01;;;;;;;1.58;1.48;;;32.90;51.60;;;;;;5075438;28;20669;-88
2022/07/20 08:55:28;;;;;;;2.40;1.52;;;33.10;51.60;;;;;;5075323;28;20702;-87
2022/07/20 08:57:55;;;;;;;1.50;1.40;;;33.30;51.00;;;;;;5075054;28;20208;-88
2022/07/20 09:00:23;;;;;;;1.45;1.35;;;33.30;50.80;;;;;;5075548;28;20182;-89
2022/07/20 09:02:55;;;;;;;1.52;1.42;;;33.30;51.40;;;;;;5075513;28;20203;-90
2022/07/20 09:05:24;;;;;;;1.90;1.50;;;33.40;50.70;;;;;;5075851;28;20214;-88
2022/07/20 09:07:52;;;;;;;1.42;1.42;;;33.40;50.90;;;;;;5075374;28;20202;-88
2022/07/20 09:10:21;;;;;;;1.90;1.80;;;33.50;50.30;;;;;;5077083;28;20204;-87
2022/07/20 09:12:57;;;;;;;1.98;1.88;;;33.60;50.50;;;;;;5075810;28;20203;-88
2022/07/20 09:15:32;;;;;;;1.73;1.63;;;33.70;50.20;;;;;;5075226;28;20226;-88
2022/07/20 09:18:09;;;;;;;1.52;1.42;;;33.80;49.00;;;;;;5075203;28;20225;-88
2022/07/20 09:20:37;;;;;;;1.70;1.60;;;33.90;49.00;;;;;;5074520;28;20652;-89
2022/07/20 09:23:06;;;;;;;3.13;1.95;;;34.10;49.20;;;;;;5075025;28;20219;-88
2022/07/20 09:25:33;;;;;;;1.65;1.55;;;34.20;47.90;;;;;;5074849;28;20324;-88
2022/07/20 09:28:01;;;;;;;3.05;2.08;;;34.20;48.20;;;;;;5074501;28;20732;-88
2022/07/20 09:30:28;;;;;;;1.77;1.67;;;34.40;48.20;;;;;;5074948;28;20202;-89
2022/07/20 09:33:00;;;;;;;2.10;1.88;;;34.80;46.70;;;;;;5075105;28;20215;-88
2022/07/20 09:35:32;;;;;;;2.17;1.73;;;34.80;47.00;;;;;;5074506;28;20202;-89
2022/07/20 09:38:02;;;;;;;2.67;1.80;;;34.70;47.20;;;;;;5074443;28;20243;-88
2022/07/20 09:40:29;;;;;;;1.48;1.13;;;34.60;47.60;;;;;;5074638;28;20229;-89
2022/07/20 09:42:56;;;;;;;2.65;1.95;;;34.50;47.20;;;;;;5074687;28;20201;-89
2022/07/20 09:45:25;;;;;;;3.03;2.40;;;34.40;47.80;;;;;;5074871;28;20230;-89
2022/07/20 09:48:08;;;;;;;2.05;1.80;;;34.50;47.70;;;;;;5075285;28;20188;-88
2022/07/20 09:50:39;;;;;;;2.13;1.90;;;34.70;46.30;;;;;;5074805;28;20186;-89
2022/07/20 09:53:07;;;;;;;1.90;1.70;;;34.70;46.50;;;;;;5075055;28;20203;-89
2022/07/20 09:55:36;;;;;;;1.73;1.63;;;34.70;47.00;;;;;;5075274;28;20615;-90
2022/07/20 09:58:04;;;;;;;2.50;2.03;;;34.70;46.50;;;;;;5074766;28;20312;-88
2022/07/20 10:00:32;;;;;;;2.25;1.75;;;34.80;46.70;;;;;;5075449;28;20205;-89
2022/07/20 10:03:01;;;;;;;2.63;2.40;;;34.90;46.80;;;;;;5075697;28;20203;-89
2022/07/20 10:05:32;;;;;;;2.17;1.95;;;35.00;46.20;;;;;;5075439;28;20226;-89
2022/07/20 10:08:05;;;;;;;2.35;1.90;;;34.90;46.30;;;;;;5074521;28;20237;-89
2022/07/20 10:10:32;;;;;;;2.25;1.60;;;34.70;46.60;;;;;;5074534;28;20188;-88
2022/07/20 10:13:00;;;;;;;2.47;2.08;;;34.60;47.80;;;;;;5073940;28;20208;-88
2022/07/20 10:15:34;;;;;;;1.80;1.70;;;34.60;47.40;;;;;;5073984;28;20208;-88
2022/07/20 10:18:01;;;;;;;2.75;2.30;;;34.60;48.00;;;;;;5074015;28;20229;-88
2022/07/20 10:20:33;;;;;;;1.67;1.58;;;34.60;47.50;;;;;;5073968;28;20206;-89
2022/07/20 10:23:27;;;;;;;2.00;1.90;;;34.60;47.40;;;;;;5073849;28;20199;-88
2022/07/20 10:25:54;;;;;;;2.25;1.98;;;34.60;47.40;;;;;;5073772;28;20699;-88
2022/07/20 10:28:36;;;;;;;2.15;1.95;;;34.60;48.50;;;;;;5073751;28;20226;-88
2022/07/20 10:31:07;;;;;;;2.15;1.67;;;34.50;46.80;;;;;;5073879;28;20242;-88
2022/07/20 10:33:36;;;;;;;2.97;2.00;;;34.70;47.00;;;;;;5072787;28;20192;-88
2022/07/20 10:38:58;;;;;;;2.10;2.00;;;34.70;47.00;;;;;;5073152;28;20607;-88
2022/07/20 10:41:36;;;;;;;2.10;2.00;;;34.70;47.30;;;;;;5073615;28;20221;-88
2022/07/20 10:44:28;;;;;;;3.40;2.00;;;34.70;47.60;;;;;;5073545;28;20205;-87
2022/07/20 10:46:55;;;;;;;2.00;1.73;;;34.70;48.30;;;;;;5073621;28;20261;-88
2022/07/20 10:50:02;;;;;;;1.77;1.67;;;34.60;47.50;;;;;;5073601;28;20218;-88
2022/07/20 10:52:33;;;;;;;2.67;2.47;;;34.70;48.00;;;;;;5073400;28;20202;-88
2022/07/20 10:55:03;;;;;;;2.38;2.20;;;34.90;47.80;;;;;;5073672;28;20283;-87
2022/07/20 10:57:31;;;;;;;2.35;2.22;;;35.00;47.50;;;;;;5073438;28;20187;-88
2022/07/20 11:00:11;;;;;;;2.80;2.53;;;35.00;46.80;;;;;;5073424;28;20275;-88
2022/07/20 11:02:38;;;;;;;3.78;2.15;;;34.90;48.10;;;;;;5073519;28;20191;-88
2022/07/20 11:05:06;;;;;;;2.63;2.28;;;35.10;48.00;;;;;;5073248;28;20234;-88
2022/07/20 11:07:35;;;;;;;2.85;1.92;;;35.30;47.00;;;;;;5073329;28;20208;-88
2022/07/20 11:10:24;;;;;;;2.08;1.92;;;35.60;46.90;;;;;;5072858;28;20714;-88
2022/07/20 11:12:56;;;;;;;3.25;2.30;;;36.10;45.70;;;;;;5072521;28;20208;-89
2022/07/20 11:15:27;;;;;;;2.50;2.30;;;36.60;45.10;;;;;;5072973;28;20280;-88
2022/07/20 11:17:56;;;;;;;2.50;2.30;;;36.70;45.50;;;;;;5073102;28;20187;-89
2022/07/20 11:20:23;;;;;;;2.55;1.90;;;36.70;44.90;;;;;;5072945;28;20301;-88
2022/07/20 11:22:50;;;;;;;2.80;2.60;;;36.70;43.70;;;;;;5073126;28;20574;-88
2022/07/20 11:25:19;;;;;;;2.25;2.15;;;36.40;44.30;;;;;;5073226;28;20204;-90
2022/07/20 11:28:00;;;;;;;4.75;2.63;;;36.20;45.00;;;;;;5072970;28;20214;-89
2022/07/20 11:30:33;;;;;;;4.25;1.90;;;36.00;44.50;;;;;;5073131;28;20211;-90
2022/07/20 11:33:00;;;;;;;1.92;1.83;;;35.90;45.30;;;;;;5073417;28;20192;-90
2022/07/20 11:35:27;;;;;;;2.95;2.75;;;35.90;45.10;;;;;;5073225;28;20203;-89
2022/07/20 11:37:54;;;;;;;2.17;1.95;;;35.70;45.50;;;;;;5072902;28;20235;-89
2022/07/20 11:40:24;;;;;;;2.50;2.30;;;35.70;45.20;;;;;;5073873;28;20204;-90
2022/07/20 11:43:08;;;;;;;2.05;1.95;;;35.70;46.20;;;;;;5073603;28;20205;-90
2022/07/20 11:45:35;;;;;;;5.95;2.65;;;35.50;45.70;;;;;;5076332;28;20226;-90
2022/07/20 11:48:03;;;;;;;2.92;2.33;;;35.30;46.20;;;;;;5076803;28;20317;-89
2022/07/20 11:50:34;;;;;;;2.65;2.30;;;35.10;47.00;;;;;;5077020;28;20191;-89
2022/07/20 11:53:01;;;;;;;3.00;2.70;;;34.70;47.50;;;;;;5076788;28;20203;-90
2022/07/20 11:55:36;;;;;;;2.40;2.20;;;34.60;47.70;;;;;;5076993;28;20301;-91
2022/07/20 11:58:03;;;;;;;3.20;2.20;;;34.60;47.50;;;;;;5077056;28;20233;-90
2022/07/20 12:00:30;;;;;;;2.10;2.00;;;34.60;47.80;;;;;;5076801;28;20599;-89
2022/07/20 12:02:58;;;;;;;3.92;2.47;;;34.70;46.90;;;;;;5076969;28;20581;-89
2022/07/20 12:05:25;;;;;;;6.00;2.72;;;34.90;46.70;;;;;;5076772;28;20202;-90
2022/07/20 12:08:10;;;;;;;2.22;2.00;;;35.00;46.60;;;;;;5076835;28;20209;-90
2022/07/20 12:10:41;;;;;;;3.70;2.00;;;35.10;46.70;;;;;;5077001;28;20186;-90
2022/07/20 12:13:10;;;;;;;3.05;2.25;;;35.10;46.90;;;;;;5076707;28;20217;-90
2022/07/20 12:15:37;;;;;;;2.90;2.65;;;35.10;46.60;;;;;;5076496;28;20213;-91
2022/07/20 12:18:04;;;;;;;3.28;2.22;;;34.90;47.20;;;;;;5076791;28;20233;-90
2022/07/20 12:20:31;;;;;;;2.00;1.90;;;34.80;46.90;;;;;;5076636;28;20209;-90
2022/07/20 12:23:01;;;;;;;2.63;2.40;;;34.60;47.10;;;;;;5076081;28;20741;-90
2022/07/20 12:25:36;;;;;;;6.05;2.50;;;34.50;47.60;;;;;;5076103;28;20191;-89
2022/07/20 12:28:05;;;;;;;3.47;1.80;;;34.30;48.70;;;;;;5075881;28;20227;-90
2022/07/20 12:30:34;;;;;;;3.17;2.92;;;34.00;49.70;;;;;;5075656;28;20215;-88
2022/07/20 12:33:10;;;;;;;2.15;2.05;;;33.90;49.40;;;;;;5075878;28;20299;-87
2022/07/20 12:35:38;;;;;;;3.35;3.05;;;33.80;50.00;;;;;;5076183;28;20203;-92
2022/07/20 12:38:05;;;;;;;3.78;3.08;;;33.60;50.90;;;;;;5075568;28;20319;-85
2022/07/20 12:40:39;;;;;;;2.42;2.22;;;33.50;52.50;;;;;;5075448;28;20210;-85
2022/07/20 12:43:27;;;;;;;4.95;3.45;;;33.20;53.80;;;;;;5075935;28;20198;-86
2022/07/20 12:45:54;;;;;;;4.38;3.42;;;33.00;54.80;;;;;;5075308;28;20573;-86
2022/07/20 12:48:21;;;;;;;4.35;3.97;;;32.80;54.80;;;;;;5075530;28;20569;-86
2022/07/20 12:50:48;;;;;;;4.25;3.83;;;32.70;55.10;;;;;;5075472;28;20208;-86
2022/07/20 12:53:15;;;;;;;7.20;4.75;;;32.50;57.20;;;;;;5075252;28;20680;-86
2022/07/20 12:55:42;;;;;;;7.10;4.93;;;32.30;58.90;;;;;;5074432;28;20207;-86
2022/07/20 12:58:10;;;;;;;5.68;4.57;;;32.10;61.00;;;;;;5074980;28;20229;-86
2022/07/20 13:00:37;;;;;;;6.70;4.30;;;31.90;65.50;;;;;;5074996;28;20210;-86